Almagrundet, Sweden

1:07 PM CEST on September 19, 2014 (GMT +0200)
Saltaro | Change Station
CLOSE
Current Station
Personal Weather Station
Location: Saltaro, VARMDO
Elevation: 46 ft
Nearby Weather Stations

Elev 46 ft 59.34 °N, 18.62 °E | Updated 23 seconds ago

Clear
Clear
69.3 °F
Feels Like 69.3 °F
N
0.0
Wind Variable Wind from South
Gusts 0.7 mph

Today
High -- | Low -- °F
--% Chance of Precip.
Yesterday
High -- | Low -- °F
Precip. -- in
6:20 AM 6:52 PM
Waning Crescent, 20% visible
Pressure 30.09 in
Visibility -9999.0 miles
Clouds
Dew Point 52 °F
Humidity 54%
Rainfall 0.00 in
Snow Depth Not available.
UV Not available.
Pollen Not available.
Air Quality Not available.
Flu Activity Not available.
METAR ESSB 191050Z 07002KT CAVOK 18/11 Q1019

More Conditions Fewer Conditions

Pressure 30.09 in
Visibility -9999.0 miles
Clouds
Dew Point 52 °F
Humidity 54%
Rainfall 0.00 in
Snow Depth Not available.
UV Not available.
Pollen Not available.
Air Quality Not available.
Flu Activity Not available.
METAR ESSB 191050Z 07002KT CAVOK 18/11 Q1019

More Conditions Fewer Conditions

10-Day Weather Forecast

Almanac

Astronomy

Sep. 19, 2014 Rise Set
Actual Time 6:20 AM CEST 6:52 PM CEST
Civil Twilight 5:39 AM CEST 7:33 PM CEST
Nautical Twilight 4:50 AM CEST 8:22 PM CEST
Astronomical Twilight 3:55 AM CEST 9:16 PM CEST
Moon 12:58 AM CEST 4:54 PM CEST
Length of Visible Light 13h 53m
Length of Day
12h 31m
Tomorrow will be 5m 13s shorter.
Waning Crescent, 20% of the Moon is Illuminated
Today
Waning Crescent
Sep 24
New
Oct 1
First Quarter
Oct 8
Full
Oct 15
Last Quarter

Yesterday's Extremes

Country Highs Country Lows

Community

WunderPhotos

Upload Photos

1,754,592 photos uploaded!

WunderBlogs® & News

Nearby

Snow Depth

Not available.

Earthquake Activity

City Distance Mag. Time & Date
No recent earthquake activity has been reported nearby.
Minimum magnitude displayed is 2.5.

Coastal Water Temperatures

Place Temperature
No Stations Reporting

Nearby Weather Stations